Time;durP1;ratioP1;P1;durP2;ratioP2;P2;SDS_P1;SDS_P2;PMS_P1;PMS_P2;Temp;Humidity;BMP_temperature;BMP_pressure;BME280_temperature;BME280_humidity;BME280_pressure;Samples;Min_cycle;Max_cycle;Signal;HPM_P1;HPM_P2
2023/03/21 00:01:32;;;;;;;21.70;13.25;;;;;;;8.88;100.00;101609.44;5070993;28;20032;-81
2023/03/21 00:03:58;;;;;;;21.38;13.07;;;;;;;8.86;100.00;101599.97;5071766;28;20077;-82
2023/03/21 00:06:24;;;;;;;23.77;13.85;;;;;;;8.84;100.00;101607.06;5058256;28;20022;-81
2023/03/21 00:08:50;;;;;;;22.27;13.90;;;;;;;8.81;100.00;101602.00;5051932;28;20056;-81
2023/03/21 00:11:15;;;;;;;22.85;14.10;;;;;;;8.79;100.00;101597.63;5054389;28;20401;-82
2023/03/21 00:13:44;;;;;;;20.15;13.07;;;;;;;8.78;100.00;101590.69;5051949;28;20048;-82
2023/03/21 00:16:16;;;;;;;21.40;13.38;;;;;;;8.76;100.00;101591.72;5059671;28;20047;-82
2023/03/21 00:18:45;;;;;;;19.90;13.17;;;;;;;8.74;100.00;101589.19;5071990;28;20029;-81
2023/03/21 00:21:15;;;;;;;16.67;13.45;;;;;;;8.75;100.00;101584.78;5071191;28;20035;-80
2023/03/21 00:23:42;;;;;;;18.58;13.52;;;;;;;8.73;100.00;101582.25;5065016;28;20020;-81
2023/03/21 00:26:08;;;;;;;22.67;13.80;;;;;;;8.75;100.00;101577.75;5046842;28;20051;-81
2023/03/21 00:28:38;;;;;;;19.65;12.93;;;;;;;8.75;100.00;101576.91;5051162;28;20044;-81
2023/03/21 00:31:05;;;;;;;19.70;13.18;;;;;;;8.73;100.00;101573.53;5052292;28;21044;-81
2023/03/21 00:33:30;;;;;;;19.13;12.85;;;;;;;8.76;100.00;101568.09;5071848;28;20473;-81
2023/03/21 00:35:56;;;;;;;15.38;12.05;;;;;;;8.76;100.00;101561.06;5071366;28;20020;-81
2023/03/21 00:38:23;;;;;;;20.05;12.70;;;;;;;8.77;100.00;101562.78;5072081;28;20039;-82
2023/03/21 00:40:49;;;;;;;19.42;12.82;;;;;;;8.75;100.00;101562.00;5068323;28;20099;-82
2023/03/21 00:43:16;;;;;;;18.48;12.57;;;;;;;8.77;100.00;101560.16;5044664;28;20876;-80
2023/03/21 00:45:45;;;;;;;20.17;12.48;;;;;;;8.76;100.00;101561.06;5058423;28;20028;-81
2023/03/21 00:48:11;;;;;;;17.98;11.68;;;;;;;8.76;100.00;101558.47;5071804;28;20024;-81
2023/03/21 00:50:39;;;;;;;18.80;12.07;;;;;;;8.75;100.00;101554.13;5067320;28;20028;-81
2023/03/21 00:53:08;;;;;;;18.23;11.38;;;;;;;8.77;100.00;101549.66;5070321;28;20028;-81
2023/03/21 00:55:33;;;;;;;21.60;11.50;;;;;;;8.80;100.00;101540.75;5071518;28;20029;-82
2023/03/21 00:57:59;;;;;;;19.67;11.48;;;;;;;8.82;100.00;101540.72;5067766;28;20028;-82
2023/03/21 01:00:25;;;;;;;16.95;10.40;;;;;;;8.83;100.00;101531.91;5054943;28;20702;-82
2023/03/21 01:02:56;;;;;;;18.52;10.90;;;;;;;8.83;100.00;101531.91;5070914;28;20052;-82
2023/03/21 01:08:11;;;;;;;20.63;10.68;;;;;;;8.82;100.00;101530.22;5070347;28;20405;-81
2023/03/21 01:10:41;;;;;;;15.05;10.38;;;;;;;8.83;100.00;101527.50;5068233;28;20029;-82
2023/03/21 01:13:08;;;;;;;24.08;11.65;;;;;;;8.84;100.00;101523.09;5069714;28;20123;-81
2023/03/21 01:15:34;;;;;;;20.40;10.70;;;;;;;8.82;100.00;101519.72;5061034;28;20053;-82
2023/03/21 01:17:59;;;;;;;21.73;10.85;;;;;;;8.82;100.00;101512.69;5028991;28;20386;-82
2023/03/21 01:20:26;;;;;;;19.02;10.20;;;;;;;8.82;100.00;101510.06;5029747;28;20018;-82
2023/03/21 01:22:54;;;;;;;19.58;9.68;;;;;;;8.84;100.00;101517.84;5030453;28;20053;-80
2023/03/21 01:25:20;;;;;;;18.33;9.73;;;;;;;8.82;100.00;101514.47;5029643;28;20029;-82
2023/03/21 01:27:45;;;;;;;18.85;9.82;;;;;;;8.82;100.00;101509.22;5065106;28;20020;-83
2023/03/21 01:30:11;;;;;;;17.45;9.43;;;;;;;8.84;100.00;101509.97;5070006;28;20077;-83
2023/03/21 01:32:37;;;;;;;19.13;9.80;;;;;;;8.85;100.00;101503.81;5046073;28;20024;-82
2023/03/21 01:35:03;;;;;;;24.02;10.55;;;;;;;8.84;100.00;101502.09;5069708;28;20418;-83
2023/03/21 01:37:28;;;;;;;18.10;9.20;;;;;;;8.85;100.00;101493.31;5069815;28;20035;-82
2023/03/21 01:39:54;;;;;;;16.80;8.80;;;;;;;8.85;100.00;101498.56;5069000;28;20417;-81
2023/03/21 01:42:19;;;;;;;19.00;9.30;;;;;;;8.88;100.00;101490.50;5069851;28;20103;-81
2023/03/21 01:44:57;;;;;;;18.40;8.85;;;;;;;8.88;100.00;101493.97;5069856;28;20047;-82
2023/03/21 01:47:22;;;;;;;16.40;9.35;;;;;;;8.88;100.00;101490.50;5063101;28;20037;-81
2023/03/21 01:49:55;;;;;;;16.27;9.52;;;;;;;8.89;100.00;101489.56;5058053;28;20074;-81
2023/03/21 01:52:25;;;;;;;15.02;9.32;;;;;;;8.84;100.00;101496.88;5069789;28;20028;-82
2023/03/21 01:54:53;;;;;;;17.15;9.90;;;;;;;8.88;100.00;101493.13;5069485;28;20469;-82
2023/03/21 01:57:31;;;;;;;17.95;10.43;;;;;;;8.87;100.00;101491.44;5070591;28;20025;-81
2023/03/21 01:59:57;;;;;;;15.50;9.52;;;;;;;8.85;100.00;101488.06;5066760;28;20021;-81
2023/03/21 02:02:28;;;;;;;20.15;10.05;;;;;;;8.86;100.00;101487.13;5037219;28;20100;-82
2023/03/21 02:04:57;;;;;;;16.55;10.15;;;;;;;8.86;100.00;101479.25;5030334;28;20088;-82
2023/03/21 02:07:35;;;;;;;13.98;9.63;;;;;;;8.89;100.00;101479.06;5058093;28;20074;-83
2023/03/21 02:10:03;;;;;;;16.02;9.63;;;;;;;8.85;100.00;101464.44;5047735;28;20045;-80
2023/03/21 02:12:30;;;;;;;14.30;9.88;;;;;;;8.84;100.00;101460.13;5050359;28;20100;-82
2023/03/21 02:14:56;;;;;;;16.70;9.60;;;;;;;8.83;100.00;101463.69;5049390;28;20100;-81
2023/03/21 02:17:43;;;;;;;15.65;9.30;;;;;;;8.86;100.00;101463.50;5067574;28;20038;-81
2023/03/21 02:20:20;;;;;;;18.25;9.70;;;;;;;8.82;100.00;101454.97;5066871;28;20099;-81
2023/03/21 02:23:00;;;;;;;18.63;9.60;;;;;;;8.83;100.00;101453.19;5068313;28;20427;-82
2023/03/21 02:25:43;;;;;;;16.08;9.27;;;;;;;8.81;100.00;101455.06;5058708;28;20020;-82
2023/03/21 02:28:28;;;;;;;15.07;9.65;;;;;;;8.81;100.00;101449.81;5036284;28;20056;-82
2023/03/21 02:31:21;;;;;;;18.58;9.77;;;;;;;8.79;100.00;101453.31;5069952;28;20033;-82
2023/03/21 02:34:02;;;;;;;18.35;10.07;;;;;;;8.81;100.00;101444.56;5066960;28;20048;-83
2023/03/21 02:36:36;;;;;;;17.42;9.88;;;;;;;8.77;100.00;101443.84;5069150;28;20074;-82
2023/03/21 02:39:24;;;;;;;15.02;9.85;;;;;;;8.78;100.00;101441.16;5061953;28;20021;-81
2023/03/21 02:42:01;;;;;;;18.08;9.70;;;;;;;8.74;100.00;101450.13;5043649;28;20029;-82
2023/03/21 02:44:32;;;;;;;21.52;10.18;;;;;;;8.72;100.00;101431.00;5047454;28;20028;-81
2023/03/21 02:47:06;;;;;;;18.23;9.63;;;;;;;8.74;100.00;101434.38;5047756;28;20036;-83
2023/03/21 02:49:43;;;;;;;17.88;9.77;;;;;;;8.71;100.00;101429.31;5038853;28;20032;-81
2023/03/21 02:52:14;;;;;;;16.52;9.65;;;;;;;8.71;100.00;101434.56;5056120;28;20029;-81
2023/03/21 02:54:42;;;;;;;17.60;9.55;;;;;;;8.73;100.00;101435.31;5066147;28;20115;-81
2023/03/21 02:57:08;;;;;;;14.15;9.38;;;;;;;8.70;100.00;101422.38;5067841;28;20025;-82
2023/03/21 02:59:36;;;;;;;14.70;10.10;;;;;;;8.70;100.00;101429.41;5047791;28;20124;-82
2023/03/21 03:02:02;;;;;;;17.52;10.45;;;;;;;8.69;100.00;101423.31;5046505;28;20021;-82
2023/03/21 03:04:28;;;;;;;16.02;10.20;;;;;;;8.69;100.00;101419.84;5047923;28;20390;-81
2023/03/21 03:07:05;;;;;;;18.73;10.35;;;;;;;8.69;100.00;101420.69;5048402;28;20032;-81
2023/03/21 03:10:02;;;;;;;16.08;10.02;;;;;;;8.68;100.00;101419.00;5048302;28;20155;-81
2023/03/21 03:12:56;;;;;;;16.60;10.15;;;;;;;8.69;100.00;101415.44;5046651;28;20021;-82
2023/03/21 03:15:40;;;;;;;14.60;9.90;;;;;;;8.69;100.00;101415.44;5053178;28;20086;-82
2023/03/21 03:18:08;;;;;;;17.63;9.90;;;;;;;8.70;100.00;101411.88;5028342;28;20032;-82
2023/03/21 03:20:59;;;;;;;16.45;10.00;;;;;;;8.69;100.00;101409.34;5029312;28;20036;-82
2023/03/21 03:23:37;;;;;;;18.95;10.35;;;;;;;8.72;100.00;101419.66;5028210;28;20615;-82
2023/03/21 03:26:12;;;;;;;18.38;10.50;;;;;;;8.70;100.00;101413.66;5028785;28;20032;-82
2023/03/21 03:28:43;;;;;;;19.55;10.32;;;;;;;8.63;100.00;101396.59;5029663;28;20087;-82
2023/03/21 03:31:12;;;;;;;14.98;9.95;;;;;;;8.64;100.00;101399.13;5030597;28;20030;-83
2023/03/21 03:33:41;;;;;;;15.80;9.68;;;;;;;8.64;100.00;101395.66;5056340;28;20430;-83
2023/03/21 03:36:11;;;;;;;18.30;9.57;;;;;;;8.67;100.00;101401.56;5073298;28;20020;-82
2023/03/21 03:38:38;;;;;;;19.40;10.00;;;;;;;8.67;100.00;101395.47;5066778;28;20025;-82
2023/03/21 03:41:13;;;;;;;19.23;9.82;;;;;;;8.68;100.00;101402.41;5066583;28;20036;-82
2023/03/21 03:43:45;;;;;;;22.73;10.65;;;;;;;8.63;100.00;101389.56;5072929;28;20478;-82
2023/03/21 03:46:18;;;;;;;16.10;9.90;;;;;;;8.64;100.00;101390.41;5071679;28;20028;-82
2023/03/21 03:49:08;;;;;;;17.27;9.80;;;;;;;8.67;100.00;101391.06;5049095;28;20060;-83
2023/03/21 03:51:53;;;;;;;17.55;10.38;;;;;;;8.63;100.00;101379.06;5032146;28;20611;-83
2023/03/21 03:54:24;;;;;;;19.48;10.50;;;;;;;8.63;100.00;101384.31;5031450;28;20030;-83
2023/03/21 03:56:49;;;;;;;16.20;10.68;;;;;;;8.62;100.00;101380.00;5034263;28;20140;-83
2023/03/21 03:59:20;;;;;;;16.80;10.52;;;;;;;8.60;100.00;101381.88;5070217;28;20111;-83
2023/03/21 04:01:46;;;;;;;14.80;9.88;;;;;;;8.56;100.00;101382.97;5054544;28;20021;-83
2023/03/21 04:04:15;;;;;;;15.95;10.52;;;;;;;8.53;100.00;101383.16;5050640;28;20062;-83
2023/03/21 04:06:44;;;;;;;23.20;11.15;;;;;;;8.52;100.00;101378.84;5048388;28;20017;-83
2023/03/21 04:09:10;;;;;;;20.35;11.00;;;;;;;8.51;100.00;101376.31;5050472;28;20049;-83
2023/03/21 04:11:36;;;;;;;16.38;10.27;;;;;;;8.53;100.00;101370.03;5051813;28;20048;-83
2023/03/21 04:14:02;;;;;;;18.92;11.40;;;;;;;8.53;100.00;101372.66;5067069;28;20020;-83
2023/03/21 04:16:30;;;;;;;20.02;10.32;;;;;;;8.54;100.00;101371.72;5071262;28;20078;-83
2023/03/21 04:18:55;;;;;;;21.92;11.02;;;;;;;8.53;100.00;101371.81;5058774;28;20028;-83
2023/03/21 04:21:22;;;;;;;18.83;11.10;;;;;;;8.54;100.00;101366.50;5044860;28;20037;-83
2023/03/21 04:23:47;;;;;;;20.65;10.85;;;;;;;8.54;100.00;101366.50;5050740;28;20025;-82
2023/03/21 04:26:12;;;;;;;17.80;11.25;;;;;;;8.52;100.00;101368.34;5051151;28;20108;-83
2023/03/21 04:28:39;;;;;;;19.23;11.23;;;;;;;8.48;100.00;101359.81;5065285;28;20113;-81
2023/03/21 04:31:08;;;;;;;19.15;10.82;;;;;;;8.50;100.00;101357.09;5072332;28;20468;-82
2023/03/21 04:33:37;;;;;;;20.77;10.98;;;;;;;8.50;100.00;101361.50;5068699;28;20389;-81
2023/03/21 04:36:05;;;;;;;20.48;10.93;;;;;;;8.50;100.00;101351.88;5060188;28;20025;-82
2023/03/21 04:38:32;;;;;;;17.25;10.50;;;;;;;8.52;100.00;101349.16;5047003;28;20029;-82
2023/03/21 04:40:59;;;;;;;21.13;11.57;;;;;;;8.54;100.00;101353.38;5063996;28;20021;-81
2023/03/21 04:43:25;;;;;;;21.30;11.13;;;;;;;8.53;100.00;101350.84;5071194;28;20056;-82
2023/03/21 04:45:54;;;;;;;22.08;10.70;;;;;;;8.54;100.00;101342.88;5067828;28;20066;-82
2023/03/21 04:48:23;;;;;;;22.90;11.77;;;;;;;8.51;100.00;101343.06;5068309;28;20032;-81
2023/03/21 04:50:49;;;;;;;18.40;10.88;;;;;;;8.52;100.00;101339.50;5071586;28;20029;-83
2023/03/21 04:53:14;;;;;;;23.77;11.25;;;;;;;8.54;100.00;101337.63;5061632;28;20051;-82
2023/03/21 04:55:39;;;;;;;18.95;10.75;;;;;;;8.56;100.00;101334.94;5050402;28;20070;-82
2023/03/21 04:58:05;;;;;;;22.80;11.23;;;;;;;8.54;100.00;101335.03;5048752;28;20033;-82
2023/03/21 05:00:36;;;;;;;23.42;11.07;;;;;;;8.54;100.00;101329.78;5063977;28;20031;-81
2023/03/21 05:03:01;;;;;;;21.20;10.85;;;;;;;8.56;100.00;101333.16;5068627;28;20029;-82
2023/03/21 05:05:27;;;;;;;19.98;10.90;;;;;;;8.58;100.00;101333.06;5068387;28;20024;-82
2023/03/21 05:07:52;;;;;;;18.02;10.60;;;;;;;8.58;100.00;101333.06;5064013;28;20492;-82
2023/03/21 05:10:17;;;;;;;20.05;10.65;;;;;;;8.55;100.00;101323.59;5041660;28;20076;-82
2023/03/21 05:12:43;;;;;;;18.10;10.23;;;;;;;8.56;100.00;101325.28;5050803;28;20025;-82
2023/03/21 05:15:08;;;;;;;23.00;10.70;;;;;;;8.57;100.00;101324.34;5052345;28;20032;-82
2023/03/21 05:17:34;;;;;;;17.77;10.57;;;;;;;8.58;100.00;101322.56;5067360;28;20132;-82
2023/03/21 05:19:59;;;;;;;18.70;10.25;;;;;;;8.56;100.00;101322.66;5067934;28;20638;-82
2023/03/21 05:22:27;;;;;;;19.35;9.75;;;;;;;8.58;100.00;101326.03;5070098;28;20519;-82
2023/03/21 05:24:54;;;;;;;16.13;10.20;;;;;;;8.61;100.00;101327.63;5069276;28;20020;-82
2023/03/21 05:27:35;;;;;;;17.77;10.35;;;;;;;8.62;100.00;101329.31;5048020;28;20036;-82
2023/03/21 05:30:07;;;;;;;18.40;9.95;;;;;;;8.62;100.00;101330.16;5059725;28;20161;-82
2023/03/21 05:32:33;;;;;;;22.90;10.48;;;;;;;8.62;100.00;101324.91;5052116;28;20190;-83
2023/03/21 05:34:58;;;;;;;16.90;10.18;;;;;;;8.62;100.00;101324.91;5069769;28;20031;-82
2023/03/21 05:37:24;;;;;;;19.33;10.27;;;;;;;8.63;100.00;101317.91;5068367;28;20032;-82
2023/03/21 05:39:50;;;;;;;17.48;9.52;;;;;;;8.61;100.00;101328.47;5069418;28;20025;-82
2023/03/21 05:42:17;;;;;;;17.08;9.43;;;;;;;8.63;100.00;101331.84;5053605;28;20029;-82
2023/03/21 05:44:43;;;;;;;17.92;9.40;;;;;;;8.64;100.00;101328.31;5050955;28;20489;-81
2023/03/21 05:47:11;;;;;;;18.65;9.45;;;;;;;8.61;100.00;101322.38;5049914;28;20049;-82
2023/03/21 05:49:37;;;;;;;20.02;10.40;;;;;;;8.60;100.00;101324.16;5050545;28;20021;-83
2023/03/21 05:52:03;;;;;;;18.88;9.50;;;;;;;8.62;100.00;101324.91;5060783;28;20021;-82
2023/03/21 05:54:28;;;;;;;19.42;9.88;;;;;;;8.63;100.00;101318.75;5066486;28;20024;-81
2023/03/21 05:56:53;;;;;;;19.52;9.63;;;;;;;8.60;100.00;101324.16;5065441;28;20459;-82
2023/03/21 05:59:19;;;;;;;16.85;9.23;;;;;;;8.62;100.00;101321.44;5058495;28;20021;-82
2023/03/21 06:01:45;;;;;;;18.35;9.80;;;;;;;8.63;100.00;101321.38;5049225;28;20027;-82
2023/03/21 06:04:11;;;;;;;17.85;9.23;;;;;;;8.63;100.00;101324.00;5049702;28;20107;-82
2023/03/21 06:06:37;;;;;;;16.00;8.90;;;;;;;8.65;100.00;101323.91;5049139;28;20103;-82
2023/03/21 06:09:03;;;;;;;17.02;9.05;;;;;;;8.66;100.00;101323.81;5049203;28;20487;-82
2023/03/21 06:11:31;;;;;;;21.33;9.57;;;;;;;8.65;100.00;101323.91;5049419;28;20021;-82
2023/03/21 06:13:56;;;;;;;19.42;8.65;;;;;;;8.68;100.00;101328.97;5047525;28;20112;-82
2023/03/21 06:16:23;;;;;;;16.77;8.80;;;;;;;8.69;100.00;101328.88;5044025;28;20496;-82
2023/03/21 06:18:48;;;;;;;16.05;8.63;;;;;;;8.71;100.00;101324.38;5064273;28;20098;-81
2023/03/21 06:21:17;;;;;;;16.10;8.82;;;;;;;8.73;100.00;101329.53;5054986;28;20025;-81
2023/03/21 06:23:43;;;;;;;17.73;8.23;;;;;;;8.75;100.00;101333.75;5049586;28;20053;-82
2023/03/21 06:26:08;;;;;;;18.23;8.80;;;;;;;8.78;100.00;101325.69;5049190;28;20052;-82
2023/03/21 06:28:34;;;;;;;15.43;8.65;;;;;;;8.80;100.00;101330.84;5063484;28;20392;-82
2023/03/21 06:31:02;;;;;;;15.15;8.40;;;;;;;8.83;100.00;101341.22;5069141;28;20455;-81
2023/03/21 06:33:29;;;;;;;17.60;8.27;;;;;;;8.85;100.00;101336.72;5042579;28;20104;-81
2023/03/21 06:35:55;;;;;;;16.13;8.45;;;;;;;8.87;100.00;101341.88;5048473;28;20036;-75
2023/03/21 06:38:24;;;;;;;16.65;8.48;;;;;;;8.90;100.00;101336.44;5062251;28;20362;-75
2023/03/21 06:40:51;;;;;;;15.57;7.65;;;;;;;8.88;100.00;101341.78;5057245;28;20381;-82
2023/03/21 06:43:17;;;;;;;21.23;8.82;;;;;;;8.90;100.00;101339.06;5062449;28;20024;-81
2023/03/21 06:45:44;;;;;;;13.35;8.20;;;;;;;8.88;100.00;101336.53;5068803;28;20036;-81
2023/03/21 06:48:11;;;;;;;18.00;9.10;;;;;;;8.90;100.00;101339.06;5063663;28;20028;-82
2023/03/21 06:50:36;;;;;;;21.15;9.82;;;;;;;8.91;100.00;101338.13;5035420;28;20076;-81
2023/03/21 06:53:02;;;;;;;20.38;8.40;;;;;;;8.94;100.00;101343.19;5029903;28;20413;-80
2023/03/21 06:55:28;;;;;;;17.60;9.30;;;;;;;8.95;100.00;101342.25;5028280;28;20386;-82
2023/03/21 06:57:54;;;;;;;15.88;8.32;;;;;;;8.92;100.00;101339.81;5028794;28;20033;-82
2023/03/21 07:00:21;;;;;;;16.75;8.55;;;;;;;8.92;100.00;101351.16;5030873;28;20568;-81
2023/03/21 07:02:47;;;;;;;16.77;8.80;;;;;;;8.93;100.00;101352.00;5058822;28;20089;-81
2023/03/21 07:05:13;;;;;;;19.58;9.13;;;;;;;8.92;100.00;101350.31;5064138;28;20028;-80
2023/03/21 07:07:39;;;;;;;15.90;8.60;;;;;;;8.89;100.00;101350.50;5038502;28;20033;-81
2023/03/21 07:10:06;;;;;;;16.35;8.30;;;;;;;8.88;100.00;101356.69;5055274;28;20057;-81
2023/03/21 07:12:34;;;;;;;23.35;9.20;;;;;;;8.89;100.00;101353.97;5049319;28;20108;-77
2023/03/21 07:15:04;;;;;;;18.27;9.45;;;;;;;8.91;100.00;101356.50;5044369;28;20389;-81
2023/03/21 07:17:29;;;;;;;18.80;9.00;;;;;;;8.93;100.00;101359.88;5046622;28;20695;-81
2023/03/21 07:19:55;;;;;;;19.98;9.27;;;;;;;8.95;100.00;101360.63;5049187;28;20021;-81
2023/03/21 07:22:20;;;;;;;17.73;9.50;;;;;;;8.95;100.00;101352.75;5049074;28;20028;-82
2023/03/21 07:24:49;;;;;;;20.17;9.52;;;;;;;8.98;100.00;101357.81;5054773;28;20110;-80
2023/03/21 07:27:16;;;;;;;16.52;9.45;;;;;;;9.01;100.00;101363.72;5049494;28;20103;-80
2023/03/21 07:29:42;;;;;;;24.38;9.40;;;;;;;8.99;100.00;101359.50;5048387;28;20294;-81
2023/03/21 07:32:08;;;;;;;21.67;9.68;;;;;;;9.01;100.00;101370.75;5047510;28;20511;-81
2023/03/21 07:34:33;;;;;;;20.00;9.75;;;;;;;9.05;100.00;101361.75;5050313;28;20033;-81
2023/03/21 07:36:59;;;;;;;17.40;9.90;;;;;;;9.04;100.00;101362.69;5057728;28;20021;-81
2023/03/21 07:39:26;;;;;;;17.25;9.55;;;;;;;9.03;100.00;101361.00;5056996;28;20017;-81
2023/03/21 07:41:54;;;;;;;19.50;9.55;;;;;;;9.07;100.00;101359.88;5048427;28;20384;-78
2023/03/21 07:44:21;;;;;;;15.88;9.35;;;;;;;9.09;100.00;101352.75;5080576;28;20049;-77
2023/03/21 07:46:47;;;;;;;13.15;9.05;;;;;;;9.07;100.00;101354.63;5047378;28;20025;-77
2023/03/21 07:49:12;;;;;;;21.10;10.43;;;;;;;9.04;100.00;101352.19;5047939;28;20431;-78
2023/03/21 07:51:39;;;;;;;20.65;10.75;;;;;;;9.04;100.00;101347.78;5048218;28;20053;-77
2023/03/21 07:54:04;;;;;;;21.08;10.63;;;;;;;9.02;100.00;101344.41;5047086;28;20044;-81
2023/03/21 07:56:29;;;;;;;20.92;10.65;;;;;;;9.02;100.00;101331.28;5048072;28;20110;-81
2023/03/21 07:58:55;;;;;;;18.92;11.45;;;;;;;9.07;100.00;101331.84;5037944;28;20020;-80
2023/03/21 08:01:25;;;;;;;18.70;10.48;;;;;;;9.06;100.00;101329.31;5056068;28;20051;-80
2023/03/21 08:03:52;;;;;;;16.73;10.90;;;;;;;9.11;100.00;101324.63;5045488;28;20028;-80
2023/03/21 08:06:19;;;;;;;20.00;11.18;;;;;;;9.14;100.00;101316.59;5046718;28;20064;-79
2023/03/21 08:08:45;;;;;;;20.17;11.35;;;;;;;9.19;100.00;101314.50;5043002;28;20044;-80
2023/03/21 08:11:11;;;;;;;21.30;11.70;;;;;;;9.25;100.00;101316.78;5048293;28;20354;-80
2023/03/21 08:13:36;;;;;;;20.10;11.30;;;;;;;9.29;100.00;101315.66;5047579;28;20029;-80
2023/03/21 08:16:02;;;;;;;20.38;11.10;;;;;;;9.42;100.00;101311.34;5049658;28;20024;-79
2023/03/21 08:18:27;;;;;;;23.13;11.13;;;;;;;9.45;100.00;101305.06;5051851;28;20424;-79
2023/03/21 08:20:54;;;;;;;17.48;10.85;;;;;;;9.43;100.00;101302.53;5050828;28;20033;-79
2023/03/21 08:23:21;;;;;;;21.05;10.75;;;;;;;9.47;100.00;101305.81;5048799;28;20066;-78
2023/03/21 08:25:54;;;;;;;22.38;10.95;;;;;;;9.45;100.00;101299.81;5064718;28;20036;-78
2023/03/21 08:28:21;;;;;;;18.30;9.75;;;;;;;9.47;100.00;101292.66;5050680;28;20029;-79
2023/03/21 08:30:47;;;;;;;19.38;10.57;;;;;;;9.46;100.00;101290.13;5050219;28;20025;-78
2023/03/21 08:33:17;;;;;;;21.42;10.32;;;;;;;9.42;100.00;101290.34;5049853;28;20075;-80
2023/03/21 08:35:43;;;;;;;17.98;9.70;;;;;;;9.42;100.00;101290.34;5051258;28;20024;-80
2023/03/21 08:38:09;;;;;;;19.42;9.85;;;;;;;9.45;100.00;101291.06;5052055;28;20028;-80
2023/03/21 08:40:35;;;;;;;16.13;9.35;;;;;;;9.36;100.00;101285.47;5051701;28;20071;-80
2023/03/21 08:43:01;;;;;;;17.50;9.30;;;;;;;9.41;100.00;101283.41;5049710;28;20174;-79
2023/03/21 08:45:27;;;;;;;18.13;9.13;;;;;;;9.43;100.00;101284.13;5051652;28;20028;-79
2023/03/21 08:47:53;;;;;;;14.32;9.40;;;;;;;9.48;100.00;101288.25;5050837;28;20541;-80
2023/03/21 08:50:23;;;;;;;13.52;8.52;;;;;;;9.47;100.00;101289.19;5030555;28;20067;-80
2023/03/21 08:52:49;;;;;;;17.73;8.45;;;;;;;9.48;100.00;101288.25;5050590;28;20071;-81
2023/03/21 08:55:16;;;;;;;18.88;9.02;;;;;;;9.51;100.00;101285.44;5050534;28;20497;-81
2023/03/21 08:57:42;;;;;;;13.52;8.50;;;;;;;9.52;100.00;101274.00;5036316;28;20025;-81
2023/03/21 09:00:13;;;;;;;16.10;8.80;;;;;;;9.55;100.00;101268.53;5046046;28;20295;-81
2023/03/21 09:02:41;;;;;;;14.45;8.00;;;;;;;9.57;100.00;101266.66;5050168;28;20052;-81
2023/03/21 09:05:08;;;;;;;15.25;8.10;;;;;;;9.60;100.00;101271.72;5050486;28;20509;-81
2023/03/21 09:07:35;;;;;;;16.88;8.75;;;;;;;9.65;100.00;101270.50;5055629;28;20055;-81
2023/03/21 09:10:02;;;;;;;17.30;9.23;;;;;;;9.67;100.00;101267.78;5050232;28;20056;-82
2023/03/21 09:12:27;;;;;;;16.48;8.68;;;;;;;9.72;100.00;101260.47;5056973;28;20020;-81
2023/03/21 09:14:53;;;;;;;17.80;8.88;;;;;;;9.76;100.00;101264.56;5048678;28;20492;-80
2023/03/21 09:17:18;;;;;;;16.95;8.48;;;;;;;9.76;100.00;101264.56;5059043;28;20445;-81
2023/03/21 09:19:46;;;;;;;19.30;9.70;;;;;;;9.82;100.00;101266.81;5049289;28;20553;-81
2023/03/21 09:22:16;;;;;;;16.63;8.85;;;;;;;9.80;100.00;101268.69;5050546;28;20373;-81
2023/03/21 09:24:46;;;;;;;14.23;8.45;;;;;;;9.78;100.00;101259.22;5039903;28;20040;-81
2023/03/21 09:27:12;;;;;;;16.58;8.65;;;;;;;9.79;100.00;101266.16;5057960;28;20025;-81
2023/03/21 09:29:42;;;;;;;15.15;8.63;;;;;;;9.81;100.00;101262.50;5068475;28;20112;-81
2023/03/21 09:32:08;;;;;;;12.95;8.00;;;;;;;9.88;100.00;101257.69;5052987;28;20390;-81
2023/03/21 09:34:35;;;;;;;17.92;8.40;;;;;;;9.91;100.00;101258.31;5048944;28;20033;-82
2023/03/21 09:37:02;;;;;;;16.10;8.52;;;;;;;9.95;100.00;101258.97;5061027;28;20058;-82
2023/03/21 09:39:27;;;;;;;10.93;7.47;;;;;;;9.99;100.00;101244.69;5068966;28;20028;-82
2023/03/21 09:42:06;;;;;;;15.20;7.90;;;;;;;10.00;100.00;101244.56;5051170;28;20773;-81
2023/03/21 09:44:53;;;;;;;13.55;7.47;;;;;;;10.01;100.00;101248.91;5056690;28;20059;-80
2023/03/21 09:47:27;;;;;;;12.68;6.78;;;;;;;10.02;100.00;101247.97;5038819;28;20425;-82
2023/03/21 09:50:12;;;;;;;16.27;7.40;;;;;;;10.08;100.00;101245.88;5052043;28;20021;-81
2023/03/21 09:52:57;;;;;;;16.80;7.72;;;;;;;10.17;100.00;101240.03;5047200;28;20040;-79
2023/03/21 09:55:29;;;;;;;14.85;7.20;;;;;;;10.21;100.00;101237.13;5049717;28;20021;-81
2023/03/21 09:58:13;;;;;;;12.35;6.65;;;;;;;10.35;100.00;101236.19;5065246;28;20693;-79
2023/03/21 10:00:42;;;;;;;13.15;6.63;;;;;;;10.45;100.00;101233.81;5067491;28;20016;-81
2023/03/21 10:03:35;;;;;;;17.65;6.57;;;;;;;10.55;100.00;101234.88;5064777;28;20024;-81
2023/03/21 10:06:04;;;;;;;;;;;;;;;10.66;100.00;101222.66;5066623;28;20094;-81
2023/03/21 10:08:36;;;;;;;13.05;6.75;;;;;;;10.66;100.00;101233.19;5069149;28;19928;-81
2023/03/21 10:11:43;;;;;;;11.70;6.50;;;;;;;10.80;100.00;101224.34;5065964;28;20037;-82
2023/03/21 10:14:18;;;;;;;13.55;6.65;;;;;;;10.84;100.00;101222.34;5023145;28;20041;-82
2023/03/21 10:16:45;;;;;;;10.05;5.82;;;;;;;10.84;100.00;101219.72;5045741;28;20090;-82
2023/03/21 10:19:14;;;;;;;9.52;5.85;;;;;;;10.90;100.00;101211.41;5048667;28;20116;-82
2023/03/21 10:21:42;;;;;;;11.27;5.93;;;;;;;10.99;100.00;101214.22;5048247;28;20029;-81
2023/03/21 10:24:23;;;;;;;13.00;6.07;;;;;;;11.15;100.00;101221.03;5049028;28;20051;-82
2023/03/21 10:26:51;;;;;;;10.05;5.35;;;;;;;11.12;100.00;101214.19;5047839;28;20029;-82
2023/03/21 10:29:21;;;;;;;12.73;5.53;;;;;;;11.29;100.00;101208.59;5046272;28;20021;-81
2023/03/21 10:31:48;;;;;;;10.88;5.57;;;;;;;11.38;100.00;101214.16;5038794;28;20036;-81
2023/03/21 10:34:31;;;;;;;10.32;5.40;;;;;;;11.45;100.00;101207.50;5053329;28;20132;-82
2023/03/21 10:36:57;;;;;;;9.20;5.90;;;;;;;11.47;100.00;101208.22;5047590;28;20059;-82
2023/03/21 10:39:32;;;;;;;12.30;5.60;;;;;;;11.63;100.00;101211.47;5051769;28;20024;-81
2023/03/21 10:41:58;;;;;;;13.10;5.93;;;;;;;11.79;100.00;101206.78;5063869;28;20036;-82
2023/03/21 10:44:34;;;;;;;10.25;5.45;;;;;;;11.88;100.00;101211.38;5069021;28;20028;-82
2023/03/21 10:47:07;;;;;;;14.38;6.00;;;;;;;11.96;99.30;101215.22;5067360;28;20024;-79
2023/03/21 10:49:34;;;;;;;12.30;6.00;;;;;;;11.91;97.01;101212.94;5059593;28;20110;-83
2023/03/21 10:52:05;;;;;;;11.73;5.25;;;;;;;11.90;97.27;101216.53;5064163;28;20033;-82
2023/03/21 10:54:32;;;;;;;11.00;5.45;;;;;;;11.99;96.19;101221.09;5049156;28;20077;-82
2023/03/21 10:57:04;;;;;;;10.65;5.30;;;;;;;12.09;96.16;101213.38;5053768;28;20021;-82
2023/03/21 11:00:01;;;;;;;10.88;5.50;;;;;;;12.25;97.54;101213.91;5049111;28;20074;-78
2023/03/21 11:02:32;;;;;;;12.80;5.63;;;;;;;12.45;93.94;101196.59;5041370;28;20039;-83
2023/03/21 11:05:06;;;;;;;14.23;5.55;;;;;;;12.61;92.31;101204.16;5047179;28;20082;-81
2023/03/21 11:07:32;;;;;;;14.10;5.18;;;;;;;12.63;90.93;101202.25;5051286;28;20037;-79
2023/03/21 11:09:59;;;;;;;11.73;5.60;;;;;;;12.61;91.67;101191.81;5050632;28;20322;-79
2023/03/21 11:12:47;;;;;;;13.70;5.10;;;;;;;12.64;91.72;101207.41;5048432;28;20028;-79
2023/03/21 11:15:31;;;;;;;12.52;5.00;;;;;;;12.62;91.73;101203.19;5049675;28;20040;-78
2023/03/21 11:18:14;;;;;;;12.20;4.78;;;;;;;12.57;90.48;101205.34;5046761;28;20398;-81
2023/03/21 11:20:49;;;;;;;9.68;4.60;;;;;;;12.54;90.29;101212.56;5054715;28;20020;-81
2023/03/21 11:23:15;;;;;;;12.35;4.95;;;;;;;12.54;88.41;101212.56;5048007;28;20043;-81
2023/03/21 11:25:41;;;;;;;11.15;4.55;;;;;;;12.60;89.29;101211.25;5048620;28;20029;-82
2023/03/21 11:28:17;;;;;;;10.85;4.75;;;;;;;12.60;87.45;101205.97;5047000;28;20469;-81